Time;durP1;ratioP1;P1;durP2;ratioP2;P2;SDS_P1;SDS_P2;PMS_P1;PMS_P2;Temp;Humidity;BMP_temperature;BMP_pressure;BME280_temperature;BME280_humidity;BME280_pressure;Samples;Min_cycle;Max_cycle;Signal;HPM_P1;HPM_P2
2023/10/23 00:01:55;;;;;;;4.38;2.38;;;8.70;99.90;;;;;;4240270;28;20507;-81
2023/10/23 00:03:56;;;;;;;4.55;2.67;;;8.70;99.90;;;;;;4219979;28;20048;-81
2023/10/23 00:05:57;;;;;;;4.10;2.40;;;9.30;99.90;;;;;;4239739;28;20043;-81
2023/10/23 00:07:58;;;;;;;4.28;2.15;;;9.60;99.90;;;;;;4237946;28;20040;-81
2023/10/23 00:09:59;;;;;;;8.63;3.42;;;9.60;99.90;;;;;;4226043;28;20087;-81
2023/10/23 00:11:59;;;;;;;6.60;2.83;;;9.20;99.90;;;;;;4240908;27;20055;-81
2023/10/23 00:14:01;;;;;;;7.95;2.50;;;8.70;99.90;;;;;;4244735;27;20044;-81
2023/10/23 00:16:02;;;;;;;7.60;2.47;;;8.70;99.90;;;;;;4222646;28;20047;-81
2023/10/23 00:18:03;;;;;;;5.78;2.20;;;8.60;99.90;;;;;;4245120;27;20049;-80
2023/10/23 00:20:05;;;;;;;4.35;2.15;;;8.60;99.90;;;;;;4240446;27;20055;-80
2023/10/23 00:22:05;;;;;;;9.55;2.63;;;8.60;99.90;;;;;;4235634;27;20420;-80
2023/10/23 00:24:06;;;;;;;6.72;2.50;;;8.60;99.90;;;;;;4245311;27;20051;-80
2023/10/23 00:26:07;;;;;;;6.60;2.67;;;8.60;99.90;;;;;;4239726;27;20126;-80
2023/10/23 00:28:08;;;;;;;5.43;2.35;;;9.20;99.90;;;;;;4245828;27;20046;-80
2023/10/23 00:30:09;;;;;;;6.20;2.72;;;8.60;99.90;;;;;;4221582;28;20476;-81
2023/10/23 00:32:10;;;;;;;8.15;2.70;;;8.60;99.90;;;;;;4245043;27;20047;-81
2023/10/23 00:34:11;;;;;;;7.18;2.63;;;8.50;99.90;;;;;;4232428;28;20075;-81
2023/10/23 00:36:12;;;;;;;5.05;2.67;;;8.60;99.90;;;;;;4262316;27;20146;-81
2023/10/23 00:38:12;;;;;;;6.75;2.80;;;8.50;99.90;;;;;;4258047;27;20483;-80
2023/10/23 00:40:13;;;;;;;5.97;2.80;;;8.50;99.90;;;;;;4246603;27;20036;-81
2023/10/23 00:42:14;;;;;;;7.32;2.70;;;8.50;99.90;;;;;;4246390;27;20115;-80
2023/10/23 00:44:15;;;;;;;5.28;2.75;;;8.50;99.90;;;;;;4250996;27;20050;-81
2023/10/23 00:46:19;;;;;;;4.57;2.72;;;8.50;99.90;;;;;;4238450;27;20143;-81
2023/10/23 00:48:22;;;;;;;5.50;2.83;;;8.50;99.90;;;;;;4246974;27;20039;-81
2023/10/23 00:50:23;;;;;;;7.47;2.65;;;8.40;99.90;;;;;;4237283;27;20055;-81
2023/10/23 00:52:24;;;;;;;6.65;3.50;;;8.40;99.90;;;;;;4247291;27;20046;-81
2023/10/23 00:54:25;;;;;;;5.90;2.97;;;8.40;99.90;;;;;;4237489;27;20031;-81
2023/10/23 00:56:27;;;;;;;8.63;2.90;;;8.90;99.90;;;;;;4247658;27;20039;-81
2023/10/23 00:58:30;;;;;;;5.82;3.05;;;8.50;99.90;;;;;;4237413;27;20043;-81
2023/10/23 01:00:33;;;;;;;5.63;2.75;;;8.40;99.90;;;;;;4248612;27;20035;-80
2023/10/23 01:02:35;;;;;;;9.70;2.80;;;8.40;99.90;;;;;;4217467;28;20096;-80
2023/10/23 01:04:36;;;;;;;6.40;3.00;;;9.00;99.90;;;;;;4249184;27;20593;-81
2023/10/23 01:06:37;;;;;;;6.53;2.85;;;8.40;99.90;;;;;;4216531;28;20504;-81
2023/10/23 01:08:38;;;;;;;4.18;2.72;;;8.40;99.90;;;;;;4250446;27;20049;-80
2023/10/23 01:10:39;;;;;;;7.22;2.88;;;8.50;99.90;;;;;;4236135;27;20063;-80
2023/10/23 01:12:40;;;;;;;8.52;2.95;;;8.40;99.90;;;;;;4251090;27;20035;-80
2023/10/23 01:14:41;;;;;;;8.48;3.30;;;8.50;99.90;;;;;;4235665;27;20052;-81
2023/10/23 01:16:42;;;;;;;5.82;3.10;;;8.30;99.90;;;;;;4251190;27;20535;-80
2023/10/23 01:18:43;;;;;;;7.93;2.88;;;8.30;99.90;;;;;;4241497;27;20411;-80
2023/10/23 01:20:45;;;;;;;6.72;3.17;;;8.30;99.90;;;;;;4250640;27;20051;-81
2023/10/23 01:22:45;;;;;;;7.18;3.15;;;8.30;99.90;;;;;;4233960;27;20055;-81
2023/10/23 01:24:48;;;;;;;7.40;3.25;;;8.70;99.90;;;;;;4231827;28;20035;-81
2023/10/23 01:26:49;;;;;;;6.03;3.35;;;8.30;99.90;;;;;;4215337;28;20147;-81
2023/10/23 01:28:50;;;;;;;7.72;2.80;;;8.30;99.90;;;;;;4233455;27;20047;-81
2023/10/23 01:30:51;;;;;;;8.07;3.75;;;8.10;99.90;;;;;;4249706;27;20525;-81
2023/10/23 01:32:52;;;;;;;5.63;3.05;;;8.30;99.90;;;;;;4244712;27;20125;-81
2023/10/23 01:34:52;;;;;;;9.65;2.88;;;8.20;99.90;;;;;;4249705;27;20552;-81
2023/10/23 01:36:53;;;;;;;5.03;3.25;;;8.30;99.90;;;;;;4215836;28;20534;-80
2023/10/23 01:38:54;;;;;;;6.93;2.80;;;8.20;99.90;;;;;;4249324;27;20075;-81
2023/10/23 01:40:55;;;;;;;5.32;3.13;;;8.20;99.90;;;;;;4234453;27;20560;-81
2023/10/23 01:42:56;;;;;;;6.22;3.00;;;8.60;99.90;;;;;;4248429;27;20051;-81
2023/10/23 01:44:57;;;;;;;7.13;3.67;;;8.20;99.90;;;;;;4234328;27;20820;-81
2023/10/23 01:46:58;;;;;;;8.57;3.78;;;8.40;99.90;;;;;;4248742;27;20213;-81
2023/10/23 01:48:59;;;;;;;8.98;3.47;;;8.20;99.90;;;;;;4234170;27;20047;-80
2023/10/23 01:51:03;;;;;;;8.20;4.20;;;8.10;99.90;;;;;;4247541;27;20488;-80
2023/10/23 01:53:04;;;;;;;7.07;4.03;;;8.10;99.90;;;;;;4234717;27;20127;-80
2023/10/23 01:55:05;;;;;;;7.47;3.20;;;8.40;99.90;;;;;;4247293;27;20043;-80
2023/10/23 01:57:06;;;;;;;6.45;3.22;;;8.10;99.90;;;;;;4235370;27;20092;-80
2023/10/23 01:59:06;;;;;;;8.32;4.18;;;8.10;99.90;;;;;;4229165;28;20527;-80
2023/10/23 02:01:21;;;;;;;6.82;3.70;;;8.10;99.90;;;;;;4217311;28;20050;-80
2023/10/23 02:03:23;;;;;;;6.47;3.60;;;8.20;99.90;;;;;;4244825;27;20442;-80
2023/10/23 02:05:24;;;;;;;9.50;3.53;;;8.00;99.90;;;;;;4237787;27;20122;-80
2023/10/23 02:07:27;;;;;;;6.00;3.38;;;8.00;99.90;;;;;;4225793;28;20054;-80
2023/10/23 02:09:28;;;;;;;8.25;3.67;;;8.00;99.90;;;;;;4238109;27;20406;-80
2023/10/23 02:11:29;;;;;;;7.78;3.75;;;8.40;99.90;;;;;;4225329;28;20524;-80
2023/10/23 02:13:30;;;;;;;12.60;3.55;;;8.00;99.90;;;;;;4225289;28;20050;-80
2023/10/23 02:15:31;;;;;;;7.88;3.97;;;8.00;99.90;;;;;;4238672;27;20042;-80
2023/10/23 02:17:31;;;;;;;12.18;4.05;;;8.00;99.90;;;;;;4224655;28;20052;-80
2023/10/23 02:19:32;;;;;;;7.03;4.10;;;8.00;99.90;;;;;;4214502;28;20067;-80
2023/10/23 02:21:33;;;;;;;8.65;3.92;;;8.00;99.90;;;;;;4238573;27;20090;-80
2023/10/23 02:23:33;;;;;;;6.53;3.53;;;8.00;99.90;;;;;;4242904;27;20507;-80
2023/10/23 02:25:34;;;;;;;10.18;4.32;;;8.20;99.90;;;;;;4239060;27;20453;-81
2023/10/23 02:27:35;;;;;;;8.55;3.95;;;7.90;99.90;;;;;;4242639;27;20100;-81
2023/10/23 02:29:36;;;;;;;12.80;3.90;;;8.20;99.90;;;;;;4238138;27;20115;-81
2023/10/23 02:31:38;;;;;;;8.20;3.90;;;7.90;99.90;;;;;;4237859;27;20510;-81
2023/10/23 02:33:38;;;;;;;9.55;4.32;;;7.90;99.90;;;;;;4249048;27;20099;-80
2023/10/23 02:35:40;;;;;;;9.30;4.40;;;8.20;99.90;;;;;;4241673;27;20043;-80
2023/10/23 02:37:41;;;;;;;9.13;4.95;;;7.80;99.90;;;;;;4239945;27;20478;-80
2023/10/23 02:39:42;;;;;;;8.45;3.47;;;8.50;99.90;;;;;;4241238;27;20082;-81
2023/10/23 02:41:43;;;;;;;7.45;4.47;;;7.80;99.90;;;;;;4240132;27;20498;-80
2023/10/23 02:43:43;;;;;;;8.05;4.40;;;7.80;99.90;;;;;;4241353;27;20082;-80
2023/10/23 02:45:44;;;;;;;7.40;4.30;;;8.40;99.90;;;;;;4239594;27;20070;-80
2023/10/23 02:47:45;;;;;;;9.30;4.47;;;7.90;99.90;;;;;;4240631;27;20505;-80
2023/10/23 02:49:46;;;;;;;9.18;4.18;;;8.00;99.90;;;;;;4240079;27;20506;-80
2023/10/23 02:51:47;;;;;;;8.15;4.78;;;7.80;99.90;;;;;;4240476;27;20058;-80
2023/10/23 02:53:47;;;;;;;8.27;4.32;;;7.80;99.90;;;;;;4240511;27;20041;-80
2023/10/23 02:55:49;;;;;;;9.95;4.50;;;8.20;99.90;;;;;;4240627;27;20129;-80
2023/10/23 02:57:57;;;;;;;9.57;4.57;;;7.80;99.90;;;;;;4205654;28;20040;-81
2023/10/23 02:59:58;;;;;;;7.45;3.90;;;8.20;99.90;;;;;;4221371;28;20052;-80
2023/10/23 03:01:58;;;;;;;8.90;4.30;;;7.70;99.90;;;;;;4242295;27;20035;-80
2023/10/23 03:03:59;;;;;;;9.75;4.22;;;8.60;99.90;;;;;;4238570;27;20124;-80
2023/10/23 03:06:00;;;;;;;8.65;4.57;;;7.20;99.90;;;;;;4242197;27;20376;-80
2023/10/23 03:08:01;;;;;;;8.35;4.80;;;7.60;99.90;;;;;;4248654;27;20043;-80
2023/10/23 03:10:01;;;;;;;7.32;4.22;;;7.70;99.90;;;;;;4238500;27;20442;-80
2023/10/23 03:12:03;;;;;;;9.57;4.68;;;7.70;99.90;;;;;;4242208;27;20051;-80
2023/10/23 03:14:04;;;;;;;9.05;4.65;;;7.60;99.90;;;;;;4247904;27;20043;-80
2023/10/23 03:16:05;;;;;;;9.00;4.10;;;7.60;99.90;;;;;;4237979;27;20495;-80
2023/10/23 03:18:06;;;;;;;6.50;4.07;;;7.60;99.90;;;;;;4243118;27;20051;-80
2023/10/23 03:20:07;;;;;;;10.05;4.53;;;7.60;99.90;;;;;;4245328;27;20111;-80
2023/10/23 03:22:09;;;;;;;8.68;4.38;;;7.60;99.90;;;;;;4246971;27;20540;-80
2023/10/23 03:24:10;;;;;;;8.90;4.20;;;8.30;99.90;;;;;;4248647;27;20043;-80
2023/10/23 03:26:11;;;;;;;12.15;4.40;;;8.20;99.90;;;;;;4244007;27;20555;-80
2023/10/23 03:28:12;;;;;;;8.32;4.50;;;7.90;99.90;;;;;;4236927;27;20051;-80
2023/10/23 03:30:12;;;;;;;11.63;4.68;;;8.00;99.90;;;;;;4230254;28;20082;-80
2023/10/23 03:32:13;;;;;;;9.90;4.72;;;7.60;99.90;;;;;;4249049;27;20043;-80
2023/10/23 03:34:14;;;;;;;9.75;4.50;;;7.60;99.90;;;;;;4236920;28;20132;-80
2023/10/23 03:36:16;;;;;;;8.88;4.43;;;7.70;99.90;;;;;;4226070;28;20054;-80
2023/10/23 03:38:16;;;;;;;7.40;3.92;;;7.70;99.90;;;;;;4236126;27;20061;-80
2023/10/23 03:40:17;;;;;;;11.82;4.57;;;7.50;99.90;;;;;;4244628;27;20047;-81
2023/10/23 03:42:18;;;;;;;11.68;5.10;;;7.60;99.90;;;;;;4235681;28;20043;-80
2023/10/23 03:44:18;;;;;;;7.13;4.35;;;7.50;99.90;;;;;;4244523;27;20372;-80
2023/10/23 03:46:19;;;;;;;9.25;4.40;;;8.10;99.90;;;;;;4236004;28;20044;-80
2023/10/23 03:48:20;;;;;;;9.27;4.72;;;7.50;99.90;;;;;;4243944;27;20054;-80
2023/10/23 03:50:21;;;;;;;10.65;5.30;;;7.90;99.90;;;;;;4235190;28;20135;-80
2023/10/23 03:52:21;;;;;;;7.53;4.18;;;8.30;99.90;;;;;;4226708;28;20055;-80
2023/10/23 03:54:22;;;;;;;8.40;4.70;;;7.50;99.90;;;;;;4221167;28;20496;-80
2023/10/23 03:56:23;;;;;;;8.90;4.72;;;7.50;99.90;;;;;;4251151;28;20019;-80
2023/10/23 03:58:24;;;;;;;8.55;4.80;;;7.70;99.90;;;;;;4247268;28;20042;-80
2023/10/23 04:00:25;;;;;;;9.20;4.60;;;7.50;99.90;;;;;;4234762;28;20136;-81
2023/10/23 04:02:26;;;;;;;10.63;4.70;;;7.60;99.90;;;;;;4245716;28;20054;-80
2023/10/23 04:04:27;;;;;;;8.02;4.22;;;7.50;99.90;;;;;;4234269;28;20411;-80
2023/10/23 04:06:28;;;;;;;8.18;4.32;;;7.80;99.90;;;;;;4241787;28;20035;-80
2023/10/23 04:08:29;;;;;;;7.97;5.28;;;7.50;99.90;;;;;;4227422;28;20844;-80
2023/10/23 04:10:29;;;;;;;7.57;4.13;;;7.70;99.90;;;;;;4248233;28;20047;-80
2023/10/23 04:12:31;;;;;;;9.75;5.05;;;8.00;99.90;;;;;;4247467;28;20495;-80
2023/10/23 04:14:33;;;;;;;7.38;4.38;;;7.50;99.90;;;;;;4248481;28;20395;-80
2023/10/23 04:16:34;;;;;;;11.93;5.07;;;7.70;99.90;;;;;;4233135;28;20043;-80
2023/10/23 04:18:35;;;;;;;10.27;4.80;;;7.40;99.90;;;;;;4231128;28;20488;-81
2023/10/23 04:20:36;;;;;;;8.43;4.25;;;7.40;99.90;;;;;;4231588;28;20408;-80
2023/10/23 04:22:37;;;;;;;7.30;4.55;;;7.30;99.90;;;;;;4246759;28;20522;-80
2023/10/23 04:24:39;;;;;;;6.90;4.30;;;7.70;99.90;;;;;;4232378;28;20040;-80
2023/10/23 04:26:39;;;;;;;13.32;4.85;;;7.30;99.90;;;;;;4247230;28;20070;-80
2023/10/23 04:28:40;;;;;;;11.48;4.95;;;7.50;99.90;;;;;;4231906;28;20442;-80
2023/10/23 04:30:41;;;;;;;14.65;5.38;;;7.90;99.90;;;;;;4247455;28;20487;-80
2023/10/23 04:32:43;;;;;;;9.40;4.55;;;6.90;99.90;;;;;;4248443;28;20075;-80
2023/10/23 04:34:43;;;;;;;9.18;4.85;;;7.20;99.90;;;;;;4231955;28;20039;-80
2023/10/23 04:36:45;;;;;;;8.98;4.90;;;7.60;99.90;;;;;;4247609;28;20615;-80
2023/10/23 04:38:47;;;;;;;8.18;4.88;;;7.10;99.90;;;;;;4213836;28;20083;-80
2023/10/23 04:40:50;;;;;;;9.70;5.13;;;7.50;99.90;;;;;;4231525;28;20040;-80
2023/10/23 04:42:51;;;;;;;10.48;4.57;;;8.00;99.90;;;;;;4249102;28;20043;-80
2023/10/23 04:44:51;;;;;;;11.93;6.03;;;7.40;99.90;;;;;;4231960;28;20046;-80
2023/10/23 04:46:52;;;;;;;10.57;5.35;;;7.20;99.90;;;;;;4229430;28;20392;-80
2023/10/23 04:48:53;;;;;;;9.90;4.95;;;7.20;99.90;;;;;;4214172;28;20055;-80
2023/10/23 04:51:02;;;;;;;10.50;5.55;;;7.60;99.90;;;;;;4255213;27;20050;-80
2023/10/23 04:53:03;;;;;;;9.07;5.03;;;7.20;99.90;;;;;;4262444;28;20098;-80
2023/10/23 04:55:06;;;;;;;9.60;5.43;;;8.20;99.90;;;;;;4217207;28;20051;-80
2023/10/23 04:57:08;;;;;;;10.38;5.15;;;7.20;99.90;;;;;;4248482;27;20049;-80
2023/10/23 04:59:09;;;;;;;7.65;5.18;;;7.20;99.90;;;;;;4216259;28;20051;-80
2023/10/23 05:01:18;;;;;;;9.00;5.22;;;7.40;99.90;;;;;;4221544;28;20091;-80
2023/10/23 05:03:20;;;;;;;9.77;5.20;;;8.10;99.90;;;;;;4252552;27;20064;-81
2023/10/23 05:05:22;;;;;;;14.90;5.85;;;7.20;99.90;;;;;;4239396;27;20042;-80
2023/10/23 05:07:23;;;;;;;9.85;5.22;;;7.10;99.90;;;;;;4244532;27;20115;-80
2023/10/23 05:09:23;;;;;;;10.00;5.53;;;7.10;99.90;;;;;;4245334;27;20036;-80
2023/10/23 05:11:24;;;;;;;12.20;5.35;;;8.00;99.90;;;;;;4239128;27;20043;-80
2023/10/23 05:13:25;;;;;;;10.70;6.07;;;7.20;99.90;;;;;;4232245;28;20087;-80
2023/10/23 05:15:26;;;;;;;8.23;5.05;;;7.90;99.90;;;;;;4226834;28;20167;-81
2023/10/23 05:17:27;;;;;;;10.20;5.28;;;7.90;99.90;;;;;;4220734;28;20114;-80
2023/10/23 05:19:28;;;;;;;10.80;5.47;;;7.00;99.90;;;;;;4244947;27;20036;-80
2023/10/23 05:21:28;;;;;;;8.88;4.93;;;7.20;99.90;;;;;;4215713;28;20039;-80
2023/10/23 05:23:29;;;;;;;11.10;5.70;;;7.00;99.90;;;;;;4239697;27;20039;-80
2023/10/23 05:25:30;;;;;;;10.55;5.90;;;7.70;99.90;;;;;;4250551;27;20129;-80
2023/10/23 05:27:31;;;;;;;11.30;5.10;;;7.00;99.90;;;;;;4244362;27;20054;-80
2023/10/23 05:29:31;;;;;;;10.52;5.22;;;7.00;99.90;;;;;;4239604;27;20398;-80
2023/10/23 05:31:38;;;;;;;13.20;5.70;;;7.10;99.90;;;;;;4243836;27;20054;-81
2023/10/23 05:33:38;;;;;;;11.63;5.13;;;7.40;99.90;;;;;;4222396;28;20484;-80
2023/10/23 05:35:39;;;;;;;12.90;6.25;;;7.20;99.90;;;;;;4243142;27;20047;-81
2023/10/23 05:37:40;;;;;;;9.23;5.65;;;7.10;99.90;;;;;;4221830;28;20466;-81
2023/10/23 05:39:41;;;;;;;9.63;5.53;;;6.90;99.90;;;;;;4214832;28;20547;-81
2023/10/23 05:41:41;;;;;;;10.27;5.40;;;7.60;99.90;;;;;;4240877;27;20491;-81
2023/10/23 05:43:44;;;;;;;8.45;5.20;;;7.20;99.90;;;;;;4226864;28;20519;-81
2023/10/23 05:45:45;;;;;;;12.35;5.65;;;7.70;99.90;;;;;;4242084;27;20043;-81
2023/10/23 05:47:46;;;;;;;12.70;5.35;;;7.00;99.90;;;;;;4223153;28;20109;-81
2023/10/23 05:49:46;;;;;;;9.43;5.07;;;6.90;99.90;;;;;;4241318;27;20487;-81
2023/10/23 05:51:47;;;;;;;12.30;5.88;;;7.10;99.90;;;;;;4241109;27;20039;-81
2023/10/23 05:53:49;;;;;;;7.25;4.47;;;6.90;99.90;;;;;;4223204;28;20091;-81
2023/10/23 05:55:50;;;;;;;12.93;5.97;;;6.90;99.90;;;;;;4241753;27;20039;-81
2023/10/23 05:57:52;;;;;;;11.65;5.18;;;7.00;99.90;;;;;;4241041;27;20084;-81
2023/10/23 05:59:52;;;;;;;11.00;5.60;;;7.10;99.90;;;;;;4223698;28;20048;-81
2023/10/23 06:01:53;;;;;;;12.65;5.78;;;6.20;99.90;;;;;;4240739;27;20118;-81
2023/10/23 06:03:54;;;;;;;9.18;4.88;;;7.00;99.90;;;;;;4223217;28;20047;-81
2023/10/23 06:05:55;;;;;;;9.20;5.10;;;7.30;99.90;;;;;;4238974;27;20089;-81
2023/10/23 06:07:55;;;;;;;9.23;5.43;;;7.20;99.90;;;;;;4232906;28;20080;-81
2023/10/23 06:09:58;;;;;;;8.10;4.80;;;6.50;99.90;;;;;;4242409;27;20043;-81
2023/10/23 06:11:58;;;;;;;11.95;4.65;;;6.90;99.90;;;;;;4241086;27;20051;-81
2023/10/23 06:13:59;;;;;;;10.50;5.70;;;6.50;99.90;;;;;;4249910;27;20039;-81
2023/10/23 06:16:07;;;;;;;10.32;5.45;;;6.60;99.90;;;;;;4220527;28;20064;-81
2023/10/23 06:18:08;;;;;;;8.77;4.63;;;6.50;99.90;;;;;;4244239;27;20043;-81
2023/10/23 06:20:09;;;;;;;8.60;5.07;;;6.50;99.90;;;;;;4238362;27;20031;-81
2023/10/23 06:22:10;;;;;;;9.23;4.65;;;6.50;99.90;;;;;;4226497;28;20043;-81
2023/10/23 06:24:11;;;;;;;8.82;4.45;;;7.00;99.90;;;;;;4219366;28;20043;-81
2023/10/23 06:26:13;;;;;;;7.07;4.60;;;6.70;99.90;;;;;;4214334;28;20036;-81
2023/10/23 06:28:13;;;;;;;7.75;4.53;;;6.70;99.90;;;;;;4244995;27;20114;-81
2023/10/23 06:30:14;;;;;;;9.40;5.18;;;6.40;99.90;;;;;;4236902;27;20066;-81
2023/10/23 06:32:15;;;;;;;10.60;5.72;;;6.70;99.90;;;;;;4244526;27;20051;-81
2023/10/23 06:34:16;;;;;;;10.77;5.75;;;6.40;99.90;;;;;;4249531;27;20415;-81
2023/10/23 06:36:16;;;;;;;8.13;5.05;;;6.70;99.90;;;;;;4236873;27;20047;-81
2023/10/23 06:38:18;;;;;;;10.70;4.80;;;7.20;99.90;;;;;;4244965;27;20122;-81
2023/10/23 06:40:19;;;;;;;8.77;4.50;;;7.00;99.90;;;;;;4236082;27;20039;-82
2023/10/23 06:42:19;;;;;;;7.95;4.78;;;7.00;99.90;;;;;;4246173;27;20527;-82
2023/10/23 06:44:20;;;;;;;9.43;4.88;;;6.80;99.90;;;;;;4219190;28;20130;-82
2023/10/23 06:46:22;;;;;;;13.70;5.63;;;6.80;99.90;;;;;;4228566;28;20047;-82
2023/10/23 06:48:23;;;;;;;9.02;5.45;;;6.50;99.90;;;;;;4239154;27;20035;-81
2023/10/23 06:50:23;;;;;;;10.88;5.47;;;6.50;99.90;;;;;;4247414;27;20058;-82
2023/10/23 06:52:24;;;;;;;9.13;4.82;;;7.00;99.90;;;;;;4217922;28;20085;-82
2023/10/23 06:54:26;;;;;;;9.52;5.57;;;7.10;99.90;;;;;;4235923;27;20035;-82
2023/10/23 06:56:28;;;;;;;13.60;5.18;;;7.40;99.90;;;;;;4249179;27;20114;-82
2023/10/23 06:58:28;;;;;;;10.32;5.10;;;6.70;99.90;;;;;;4220161;28;20108;-82
2023/10/23 07:00:29;;;;;;;11.55;5.90;;;7.00;99.90;;;;;;4231468;28;20047;-81
2023/10/23 07:02:30;;;;;;;9.60;5.50;;;6.50;99.90;;;;;;4227735;28;20040;-81
2023/10/23 07:04:30;;;;;;;11.63;5.32;;;7.40;99.90;;;;;;4246862;27;20631;-82
2023/10/23 07:06:31;;;;;;;11.88;5.45;;;6.70;99.90;;;;;;4233984;27;20073;-81
2023/10/23 07:08:39;;;;;;;11.55;5.75;;;6.70;99.90;;;;;;4228791;28;20516;-81
2023/10/23 07:10:40;;;;;;;8.27;5.10;;;6.80;99.90;;;;;;4232949;27;20484;-81
2023/10/23 07:12:42;;;;;;;13.10;5.90;;;7.10;99.90;;;;;;4229869;28;20039;-81
2023/10/23 07:14:43;;;;;;;11.73;5.63;;;7.70;99.90;;;;;;4249034;27;20035;-81
2023/10/23 07:16:45;;;;;;;10.68;5.85;;;7.70;99.90;;;;;;4214307;28;20051;-81
2023/10/23 07:18:46;;;;;;;9.73;5.18;;;7.50;99.90;;;;;;4247994;27;20444;-83
2023/10/23 07:20:57;;;;;;;11.90;5.35;;;7.30;99.90;;;;;;4232041;27;20044;-82
2023/10/23 07:22:57;;;;;;;10.93;4.50;;;7.00;99.90;;;;;;4233280;27;20880;-82
2023/10/23 07:25:08;;;;;;;9.75;5.72;;;7.60;99.90;;;;;;4247288;27;20122;-82
2023/10/23 07:27:11;;;;;;;10.18;6.10;;;7.00;99.90;;;;;;4234480;27;20531;-83
2023/10/23 07:29:13;;;;;;;8.00;5.03;;;7.50;99.90;;;;;;4227018;28;20036;-83
2023/10/23 07:31:14;;;;;;;9.05;5.25;;;7.40;99.90;;;;;;4235746;27;20035;-81
2023/10/23 07:33:15;;;;;;;9.00;5.18;;;7.00;99.90;;;;;;4241852;27;20082;-82
2023/10/23 07:35:16;;;;;;;9.43;5.00;;;7.00;99.90;;;;;;4244982;27;20092;-82
2023/10/23 07:37:20;;;;;;;11.05;4.82;;;7.00;99.90;;;;;;4235605;27;20047;-81
2023/10/23 07:39:21;;;;;;;9.93;5.22;;;7.30;99.90;;;;;;4247717;27;20069;-82
2023/10/23 07:41:22;;;;;;;8.23;5.35;;;7.20;99.90;;;;;;4248703;27;20097;-82
2023/10/23 07:43:23;;;;;;;7.95;5.38;;;7.40;99.90;;;;;;4225773;28;20044;-82
2023/10/23 07:45:23;;;;;;;10.27;5.43;;;7.20;99.90;;;;;;4238916;27;20031;-82
2023/10/23 07:47:24;;;;;;;8.77;5.18;;;7.50;99.90;;;;;;4248596;28;20111;-82
2023/10/23 07:49:25;;;;;;;13.20;5.47;;;7.40;99.90;;;;;;4227611;28;20044;-82
2023/10/23 07:51:26;;;;;;;16.48;6.00;;;7.00;99.90;;;;;;4248504;28;20071;-81
2023/10/23 07:53:27;;;;;;;11.43;5.35;;;7.40;99.90;;;;;;4244398;28;20039;-82
2023/10/23 07:55:28;;;;;;;15.07;6.57;;;7.40;99.90;;;;;;4243431;28;20047;-82
2023/10/23 07:57:29;;;;;;;11.10;6.57;;;7.40;99.90;;;;;;4244565;28;20608;-83
2023/10/23 07:59:32;;;;;;;14.50;6.75;;;7.60;99.90;;;;;;4245432;28;20043;-82
2023/10/23 08:01:33;;;;;;;12.85;6.75;;;8.20;99.90;;;;;;4246847;28;20039;-82
2023/10/23 08:03:35;;;;;;;16.08;7.03;;;7.50;99.90;;;;;;4242443;28;20514;-83
2023/10/23 08:05:36;;;;;;;13.63;6.45;;;7.60;99.90;;;;;;4230572;28;20158;-83
2023/10/23 08:07:37;;;;;;;12.05;6.43;;;7.70;99.90;;;;;;4235963;28;20121;-82
2023/10/23 08:09:39;;;;;;;11.25;6.30;;;7.80;99.90;;;;;;4225768;28;20539;-82
2023/10/23 08:11:40;;;;;;;10.63;6.13;;;8.00;99.90;;;;;;4246001;28;20074;-83
2023/10/23 08:13:41;;;;;;;13.43;6.43;;;8.30;99.90;;;;;;4227500;28;20047;-83
2023/10/23 08:15:43;;;;;;;9.18;6.07;;;8.80;99.90;;;;;;4223100;28;20047;-83
2023/10/23 08:17:44;;;;;;;10.18;6.15;;;8.90;99.90;;;;;;4239176;28;20423;-83
2023/10/23 08:19:45;;;;;;;13.45;6.55;;;8.70;99.90;;;;;;4240916;28;20053;-82
2023/10/23 08:21:47;;;;;;;9.65;6.07;;;9.40;99.90;;;;;;4243379;28;20793;-83
2023/10/23 08:23:54;;;;;;;13.20;6.00;;;10.00;99.90;;;;;;4245026;28;20587;-82
2023/10/23 08:25:54;;;;;;;10.88;5.05;;;10.90;99.90;;;;;;4226753;28;20096;-82
2023/10/23 08:27:55;;;;;;;10.32;4.90;;;12.10;99.90;;;;;;4240158;28;20073;-82
2023/10/23 08:29:56;;;;;;;11.50;5.85;;;13.20;99.90;;;;;;4246518;27;20410;-82
2023/10/23 08:31:58;;;;;;;10.25;5.10;;;14.10;99.90;;;;;;4238509;27;20038;-82
2023/10/23 08:33:59;;;;;;;9.23;4.88;;;15.00;99.90;;;;;;4241907;27;20403;-82
2023/10/23 08:36:00;;;;;;;11.15;4.63;;;15.90;99.90;;;;;;4248211;27;20035;-83
2023/10/23 08:38:00;;;;;;;8.68;5.03;;;16.60;99.90;;;;;;4214174;28;20043;-82
2023/10/23 08:40:06;;;;;;;7.38;4.55;;;17.20;99.90;;;;;;4243523;27;20039;-83
2023/10/23 08:42:06;;;;;;;6.72;4.13;;;17.60;99.90;;;;;;4223172;28;20078;-82
2023/10/23 08:44:07;;;;;;;6.65;4.25;;;18.00;99.90;;;;;;4218852;28;20455;-82
2023/10/23 08:46:08;;;;;;;6.78;4.28;;;;;;;;;;4237496;27;20043;-83
2023/10/23 08:48:10;;;;;;;9.63;4.45;;;;;;;;;;4237377;27;20039;-83
2023/10/23 08:50:11;;;;;;;6.93;4.47;;;18.50;99.90;;;;;;4218598;28;20047;-83
2023/10/23 08:52:12;;;;;;;6.65;4.10;;;;;;;;;;4220082;28;20081;-83
2023/10/23 08:54:17;;;;;;;11.02;4.22;;;;;;;;;;4241125;27;20039;-82
2023/10/23 08:56:19;;;;;;;6.95;4.00;;;19.60;99.90;;;;;;4245721;27;20032;-82
2023/10/23 08:58:22;;;;;;;5.97;4.03;;;;;;;;;;4240016;27;20573;-83
2023/10/23 09:00:23;;;;;;;8.82;3.90;;;;;;;;;;4236922;27;20108;-83
2023/10/23 09:02:25;;;;;;;6.80;3.60;;;;;;;;;;4244460;27;20368;-82
2023/10/23 09:04:25;;;;;;;6.47;3.95;;;20.70;99.90;;;;;;4248063;27;20039;-83
2023/10/23 09:06:26;;;;;;;7.05;3.92;;;21.70;99.90;;;;;;4239759;27;20047;-82
2023/10/23 09:08:29;;;;;;;5.28;3.80;;;21.70;99.90;;;;;;4244171;27;20057;-82
2023/10/23 09:10:29;;;;;;;6.97;3.75;;;22.10;99.90;;;;;;4239300;27;20048;-82
2023/10/23 09:12:32;;;;;;;6.90;3.63;;;22.30;99.90;;;;;;4238536;27;20043;-82
2023/10/23 09:14:35;;;;;;;6.40;4.00;;;22.50;99.90;;;;;;4238490;27;20044;-83
2023/10/23 09:16:36;;;;;;;9.48;3.60;;;22.70;99.90;;;;;;4243695;27;20045;-83
2023/10/23 09:18:51;;;;;;;6.80;4.15;;;22.80;99.90;;;;;;4245244;27;20173;-82
2023/10/23 09:20:52;;;;;;;6.18;3.78;;;23.00;99.90;;;;;;4237742;27;20043;-82
2023/10/23 09:22:54;;;;;;;5.30;3.55;;;22.90;99.90;;;;;;4243807;27;20050;-82
2023/10/23 09:24:56;;;;;;;5.30;3.17;;;23.10;99.90;;;;;;4244490;27;20047;-81
2023/10/23 09:26:57;;;;;;;6.18;3.33;;;22.90;99.90;;;;;;4236680;27;20040;-81
2023/10/23 09:28:58;;;;;;;6.25;3.20;;;22.50;99.90;;;;;;4239629;27;20381;-81
2023/10/23 09:30:59;;;;;;;5.78;3.20;;;22.50;99.90;;;;;;4220068;28;20032;-81
2023/10/23 09:33:00;;;;;;;6.80;4.13;;;22.40;99.90;;;;;;4205620;28;20159;-81
2023/10/23 09:35:04;;;;;;;6.13;3.70;;;22.40;99.90;;;;;;4221291;28;20113;-81
2023/10/23 09:37:05;;;;;;;6.07;3.00;;;22.20;99.90;;;;;;4226978;28;20846;-81
2023/10/23 09:39:06;;;;;;;6.55;4.10;;;21.90;99.90;;;;;;4241005;27;20119;-81
2023/10/23 09:41:12;;;;;;;8.35;3.50;;;21.60;99.90;;;;;;4241922;27;20053;-81
2023/10/23 09:43:14;;;;;;;4.70;3.35;;;21.40;99.90;;;;;;4240146;27;20408;-81
2023/10/23 09:45:15;;;;;;;6.45;4.00;;;21.20;99.90;;;;;;4241708;27;20076;-82
2023/10/23 09:47:18;;;;;;;6.03;3.15;;;20.80;99.90;;;;;;4226178;28;20081;-81
2023/10/23 09:49:21;;;;;;;6.00;3.40;;;20.90;99.90;;;;;;4242190;27;20043;-81
2023/10/23 09:51:29;;;;;;;5.80;2.80;;;20.60;99.90;;;;;;4241955;27;20500;-81
2023/10/23 09:53:31;;;;;;;4.50;2.80;;;20.30;99.90;;;;;;4242547;27;20074;-81
2023/10/23 09:55:35;;;;;;;7.45;3.40;;;19.90;99.90;;;;;;4243438;27;20507;-81
2023/10/23 09:57:37;;;;;;;5.03;2.75;;;19.70;99.90;;;;;;4247883;27;20047;-81
2023/10/23 09:59:42;;;;;;;5.45;3.10;;;19.70;99.90;;;;;;4244456;27;20043;-81
2023/10/23 10:01:50;;;;;;;4.70;2.70;;;19.70;99.90;;;;;;4244776;27;20437;-81
2023/10/23 10:03:53;;;;;;;4.82;2.63;;;19.80;99.90;;;;;;4230014;28;20457;-81
2023/10/23 10:06:09;;;;;;;4.72;2.80;;;19.90;99.90;;;;;;4226107;28;20044;-82
2023/10/23 10:08:18;;;;;;;3.88;2.60;;;20.00;99.90;;;;;;4245441;27;20118;-82
2023/10/23 10:10:20;;;;;;;4.47;2.33;;;20.20;99.90;;;;;;4244174;27;20042;-79
2023/10/23 10:12:22;;;;;;;8.40;2.60;;;20.20;99.90;;;;;;4246005;27;20067;-81
2023/10/23 10:14:27;;;;;;;7.75;2.80;;;20.20;99.90;;;;;;4243883;27;20109;-81
2023/10/23 10:16:28;;;;;;;4.80;2.80;;;20.30;99.90;;;;;;4244266;27;20049;-81
2023/10/23 10:18:29;;;;;;;5.40;2.53;;;20.30;99.90;;;;;;4243227;27;20042;-81
2023/10/23 10:20:31;;;;;;;5.78;2.80;;;20.40;99.90;;;;;;4244517;27;20123;-81
2023/10/23 10:22:35;;;;;;;2.97;2.25;;;20.50;99.90;;;;;;4226791;28;20055;-81
2023/10/23 10:24:38;;;;;;;4.03;2.30;;;20.40;99.90;;;;;;4246318;27;20035;-81
2023/10/23 10:26:39;;;;;;;5.20;2.30;;;20.40;99.90;;;;;;4228792;28;20048;-81
2023/10/23 10:28:40;;;;;;;6.90;2.20;;;20.30;99.90;;;;;;4246235;27;20039;-80
2023/10/23 10:30:45;;;;;;;3.28;2.22;;;20.40;99.90;;;;;;4243805;27;20058;-80
2023/10/23 10:32:55;;;;;;;5.18;2.70;;;20.30;99.90;;;;;;4247238;27;20031;-80
2023/10/23 10:35:00;;;;;;;2.80;1.98;;;20.30;99.90;;;;;;4246208;27;20035;-81
2023/10/23 10:37:04;;;;;;;5.10;2.08;;;20.10;99.90;;;;;;4246569;27;20039;-81
2023/10/23 10:39:06;;;;;;;8.68;2.72;;;;;;;;;;4244050;27;20044;-81
2023/10/23 10:41:17;;;;;;;4.65;2.13;;;;;;;;;;4246458;27;20046;-81